sensor_id;sensor_type;location;lat;lon;timestamp;pressure;altitude;pressure_sealevel;temperature;humidity
7018;BME280;3549;42.162;24.726;2023-05-19T00:01:39;47842.00;;;-141.97;85.07
7018;BME280;3549;42.162;24.726;2023-05-19T00:04:08;47830.47;;;-141.97;84.87
7018;BME280;3549;42.162;24.726;2023-05-19T00:06:34;47811.25;;;-141.97;84.49
7018;BME280;3549;42.162;24.726;2023-05-19T00:09:01;47868.91;;;-141.97;83.62
7018;BME280;3549;42.162;24.726;2023-05-19T00:11:27;47809.31;;;-141.97;83.16
7018;BME280;3549;42.162;24.726;2023-05-19T00:13:54;47824.69;;;-141.97;82.04
7018;BME280;3549;42.162;24.726;2023-05-19T00:16:21;47815.09;;;-141.97;81.79
7018;BME280;3549;42.162;24.726;2023-05-19T00:18:47;47895.81;;;-141.97;82.58
7018;BME280;3549;42.162;24.726;2023-05-19T00:21:13;47849.69;;;-141.97;82.20
7018;BME280;3549;42.162;24.726;2023-05-19T00:23:39;47815.09;;;-141.97;82.12
7018;BME280;3549;42.162;24.726;2023-05-19T00:26:04;47799.72;;;-141.97;81.69
7018;BME280;3549;42.162;24.726;2023-05-19T00:28:30;47803.56;;;-141.97;81.17
7018;BME280;3549;42.162;24.726;2023-05-19T00:30:55;47815.09;;;-141.97;80.70
7018;BME280;3549;42.162;24.726;2023-05-19T00:33:21;47805.47;;;-141.97;80.73
7018;BME280;3549;42.162;24.726;2023-05-19T00:35:46;47803.56;;;-141.97;80.38
7018;BME280;3549;42.162;24.726;2023-05-19T00:38:12;47792.03;;;-141.97;79.69
7018;BME280;3549;42.162;24.726;2023-05-19T00:40:37;47770.88;;;-141.97;79.84
7018;BME280;3549;42.162;24.726;2023-05-19T00:43:03;47815.09;;;-141.97;79.62
7018;BME280;3549;42.162;24.726;2023-05-19T00:45:30;47799.72;;;-141.97;77.81
7018;BME280;3549;42.162;24.726;2023-05-19T00:47:55;47830.47;;;-141.97;78.18
7018;BME280;3549;42.162;24.726;2023-05-19T00:50:21;47792.03;;;-141.97;78.41
7018;BME280;3549;42.162;24.726;2023-05-19T00:52:49;47847.75;;;-141.97;78.22
7018;BME280;3549;42.162;24.726;2023-05-19T00:55:14;47838.16;;;-141.97;77.91
7018;BME280;3549;42.162;24.726;2023-05-19T00:57:41;47849.69;;;-141.97;78.18
7018;BME280;3549;42.162;24.726;2023-05-19T01:00:07;47830.47;;;-141.97;78.49
7018;BME280;3549;42.162;24.726;2023-05-19T01:02:33;47807.41;;;-141.97;78.34
7018;BME280;3549;42.162;24.726;2023-05-19T01:04:59;47795.88;;;-141.97;78.44
7018;BME280;3549;42.162;24.726;2023-05-19T01:07:24;47847.75;;;-141.97;78.97
7018;BME280;3549;42.162;24.726;2023-05-19T01:09:50;47845.84;;;-141.97;78.38
7018;BME280;3549;42.162;24.726;2023-05-19T01:12:16;47776.63;;;-141.97;78.68
7018;BME280;3549;42.162;24.726;2023-05-19T01:14:42;47803.56;;;-141.97;78.90
7018;BME280;3549;42.162;24.726;2023-05-19T01:31:15;47822.78;;;-141.97;77.95
7018;BME280;3549;42.162;24.726;2023-05-19T01:33:42;47853.53;;;-141.97;78.30
7018;BME280;3549;42.162;24.726;2023-05-19T01:36:10;47759.34;;;-141.97;78.57
7018;BME280;3549;42.162;24.726;2023-05-19T01:38:37;47803.56;;;-141.97;78.03
7018;BME280;3549;42.162;24.726;2023-05-19T01:41:02;47799.72;;;-141.97;78.21
7018;BME280;3549;42.162;24.726;2023-05-19T01:43:30;47803.56;;;-141.97;77.01
7018;BME280;3549;42.162;24.726;2023-05-19T01:45:56;47799.72;;;-141.97;77.24
7018;BME280;3549;42.162;24.726;2023-05-19T01:48:23;47728.59;;;-141.97;77.00
7018;BME280;3549;42.162;24.726;2023-05-19T01:50:50;47945.81;;;-141.97;76.20
7018;BME280;3549;42.162;24.726;2023-05-19T01:53:16;47949.66;;;-141.97;76.66
7018;BME280;3549;42.162;24.726;2023-05-19T01:55:47;47953.50;;;-141.97;76.63
7018;BME280;3549;42.162;24.726;2023-05-19T01:58:40;47815.09;;;-141.97;76.92
7018;BME280;3549;42.162;24.726;2023-05-19T02:03:44;47849.69;;;-141.97;77.01
7018;BME280;3549;42.162;24.726;2023-05-19T02:06:41;47811.25;;;-141.97;76.96
7018;BME280;3549;42.162;24.726;2023-05-19T02:09:17;47797.78;;;-141.97;77.44
7018;BME280;3549;42.162;24.726;2023-05-19T02:14:54;47845.84;;;-141.97;77.33
7018;BME280;3549;42.162;24.726;2023-05-19T02:17:22;47836.22;;;-141.97;77.11
7018;BME280;3549;42.162;24.726;2023-05-19T02:19:47;47943.88;;;-141.97;76.95
7018;BME280;3549;42.162;24.726;2023-05-19T02:22:13;47840.06;;;-141.97;77.07
7018;BME280;3549;42.162;24.726;2023-05-19T02:24:38;47765.09;;;-141.97;76.87
7018;BME280;3549;42.162;24.726;2023-05-19T02:27:05;47795.88;;;-141.97;77.61
7018;BME280;3549;42.162;24.726;2023-05-19T02:29:30;47842.00;;;-141.97;77.65
7018;BME280;3549;42.162;24.726;2023-05-19T02:31:56;47842.00;;;-141.97;77.71
7018;BME280;3549;42.162;24.726;2023-05-19T02:34:21;47936.19;;;-141.97;77.96
7018;BME280;3549;42.162;24.726;2023-05-19T02:36:47;47828.53;;;-141.97;78.36
7018;BME280;3549;42.162;24.726;2023-05-19T02:39:14;47943.88;;;-141.97;78.74
7018;BME280;3549;42.162;24.726;2023-05-19T02:41:40;47807.41;;;-141.97;78.22
7018;BME280;3549;42.162;24.726;2023-05-19T02:44:05;47809.31;;;-141.97;78.16
7018;BME280;3549;42.162;24.726;2023-05-19T02:46:31;47761.25;;;-141.97;78.42
7018;BME280;3549;42.162;24.726;2023-05-19T02:48:57;47826.63;;;-141.97;78.71
7018;BME280;3549;42.162;24.726;2023-05-19T02:51:22;47809.31;;;-141.97;78.84
7018;BME280;3549;42.162;24.726;2023-05-19T02:53:48;47845.84;;;-141.97;79.35
7018;BME280;3549;42.162;24.726;2023-05-19T02:56:13;47832.38;;;-141.97;79.09
7018;BME280;3549;42.162;24.726;2023-05-19T02:58:38;47938.09;;;-141.97;79.27
7018;BME280;3549;42.162;24.726;2023-05-19T03:01:04;47840.06;;;-141.97;79.20
7018;BME280;3549;42.162;24.726;2023-05-19T03:03:29;47899.66;;;-141.97;79.68
7018;BME280;3549;42.162;24.726;2023-05-19T03:05:55;47784.34;;;-141.97;80.18
7018;BME280;3549;42.162;24.726;2023-05-19T03:08:20;47830.47;;;-141.97;80.20
7018;BME280;3549;42.162;24.726;2023-05-19T03:10:46;47838.16;;;-141.97;79.42
7018;BME280;3549;42.162;24.726;2023-05-19T03:13:12;47742.03;;;-141.97;79.45
7018;BME280;3549;42.162;24.726;2023-05-19T03:15:37;47849.69;;;-141.97;78.75
7018;BME280;3549;42.162;24.726;2023-05-19T03:18:03;47826.63;;;-141.97;78.94
7018;BME280;3549;42.162;24.726;2023-05-19T03:20:28;47820.84;;;-141.97;79.19
7018;BME280;3549;42.162;24.726;2023-05-19T03:22:54;47826.63;;;-141.97;78.94
7018;BME280;3549;42.162;24.726;2023-05-19T03:25:20;47826.63;;;-141.97;79.17
7018;BME280;3549;42.162;24.726;2023-05-19T03:27:46;47872.75;;;-141.97;79.39
7018;BME280;3549;42.162;24.726;2023-05-19T03:30:12;47811.25;;;-141.97;79.58
7018;BME280;3549;42.162;24.726;2023-05-19T03:32:37;47836.22;;;-141.97;80.57
7018;BME280;3549;42.162;24.726;2023-05-19T03:35:03;47807.41;;;-141.97;80.46
7018;BME280;3549;42.162;24.726;2023-05-19T03:37:29;47924.66;;;-141.97;80.85
7018;BME280;3549;42.162;24.726;2023-05-19T03:39:55;47824.69;;;-141.97;80.22
7018;BME280;3549;42.162;24.726;2023-05-19T03:42:21;47853.53;;;-141.97;79.91
7018;BME280;3549;42.162;24.726;2023-05-19T03:44:47;47826.63;;;-141.97;79.18
7018;BME280;3549;42.162;24.726;2023-05-19T03:47:12;47818.94;;;-141.97;78.62
7018;BME280;3549;42.162;24.726;2023-05-19T03:49:37;47853.53;;;-141.97;78.53
7018;BME280;3549;42.162;24.726;2023-05-19T03:52:03;47817.00;;;-141.97;78.51
7018;BME280;3549;42.162;24.726;2023-05-19T03:54:28;47824.69;;;-141.97;78.80
7018;BME280;3549;42.162;24.726;2023-05-19T03:56:54;47961.19;;;-141.97;77.75
7018;BME280;3549;42.162;24.726;2023-05-19T03:59:19;47745.88;;;-141.97;78.15
7018;BME280;3549;42.162;24.726;2023-05-19T04:01:45;47807.41;;;-141.97;77.47
7018;BME280;3549;42.162;24.726;2023-05-19T04:04:10;47951.56;;;-141.97;77.64
7018;BME280;3549;42.162;24.726;2023-05-19T04:06:36;47818.94;;;-141.97;77.62
7018;BME280;3549;42.162;24.726;2023-05-19T04:09:02;47811.25;;;-141.97;77.27
7018;BME280;3549;42.162;24.726;2023-05-19T04:11:29;47843.91;;;-141.97;77.55
7018;BME280;3549;42.162;24.726;2023-05-19T04:13:54;47845.84;;;-141.97;76.55
7018;BME280;3549;42.162;24.726;2023-05-19T04:16:20;47784.34;;;-141.97;77.04
7018;BME280;3549;42.162;24.726;2023-05-19T04:18:45;47928.50;;;-141.97;77.26
7018;BME280;3549;42.162;24.726;2023-05-19T04:21:11;47822.78;;;-141.97;77.18
7018;BME280;3549;42.162;24.726;2023-05-19T04:23:36;47836.22;;;-141.97;77.35
7018;BME280;3549;42.162;24.726;2023-05-19T04:26:01;47818.94;;;-141.97;77.24
7018;BME280;3549;42.162;24.726;2023-05-19T04:28:28;47828.53;;;-141.97;76.92
7018;BME280;3549;42.162;24.726;2023-05-19T04:30:54;47801.63;;;-141.97;76.25
7018;BME280;3549;42.162;24.726;2023-05-19T04:33:20;47849.69;;;-141.97;75.92
7018;BME280;3549;42.162;24.726;2023-05-19T04:35:45;47838.16;;;-141.97;75.63
7018;BME280;3549;42.162;24.726;2023-05-19T04:38:11;47832.38;;;-141.97;74.43
7018;BME280;3549;42.162;24.726;2023-05-19T04:40:37;47813.16;;;-141.97;74.08
7018;BME280;3549;42.162;24.726;2023-05-19T04:43:04;47830.47;;;-141.97;73.36
7018;BME280;3549;42.162;24.726;2023-05-19T04:45:31;47830.47;;;-141.97;72.80
7018;BME280;3549;42.162;24.726;2023-05-19T04:47:57;47801.63;;;-141.97;73.11
7018;BME280;3549;42.162;24.726;2023-05-19T04:50:23;47803.56;;;-141.97;71.78
7018;BME280;3549;42.162;24.726;2023-05-19T04:52:48;47801.63;;;-141.97;70.81
7018;BME280;3549;42.162;24.726;2023-05-19T04:55:14;47799.72;;;-141.97;70.19
7018;BME280;3549;42.162;24.726;2023-05-19T04:57:40;47803.56;;;-141.97;69.55
7018;BME280;3549;42.162;24.726;2023-05-19T05:00:06;47818.94;;;-141.97;68.65
7018;BME280;3549;42.162;24.726;2023-05-19T05:02:38;47792.03;;;-141.97;67.90
7018;BME280;3549;42.162;24.726;2023-05-19T05:05:03;47934.25;;;-141.97;67.39
7018;BME280;3549;42.162;24.726;2023-05-19T05:07:29;47707.44;;;-141.97;66.90
7018;BME280;3549;42.162;24.726;2023-05-19T05:09:55;47811.25;;;-141.97;67.35
7018;BME280;3549;42.162;24.726;2023-05-19T05:12:20;47818.94;;;-141.97;66.26
7018;BME280;3549;42.162;24.726;2023-05-19T05:14:46;47986.16;;;-141.97;66.31
7018;BME280;3549;42.162;24.726;2023-05-19T05:17:12;47799.72;;;-141.97;65.72
7018;BME280;3549;42.162;24.726;2023-05-19T05:19:38;47792.03;;;-141.97;65.85
7018;BME280;3549;42.162;24.726;2023-05-19T05:22:04;47818.94;;;-141.97;65.76
7018;BME280;3549;42.162;24.726;2023-05-19T05:24:30;47811.25;;;-141.97;65.39
7018;BME280;3549;42.162;24.726;2023-05-19T05:26:57;47805.47;;;-141.97;64.93
7018;BME280;3549;42.162;24.726;2023-05-19T05:29:23;47795.88;;;-141.97;64.76
7018;BME280;3549;42.162;24.726;2023-05-19T05:31:49;47792.03;;;-141.97;64.03
7018;BME280;3549;42.162;24.726;2023-05-19T05:34:14;47780.47;;;-141.97;63.74
7018;BME280;3549;42.162;24.726;2023-05-19T05:36:40;47795.88;;;-141.97;63.25
7018;BME280;3549;42.162;24.726;2023-05-19T05:39:05;47790.09;;;-141.97;63.91
7018;BME280;3549;42.162;24.726;2023-05-19T05:41:31;47811.25;;;-141.97;64.17
7018;BME280;3549;42.162;24.726;2023-05-19T05:44:02;47830.47;;;-141.97;64.20
7018;BME280;3549;42.162;24.726;2023-05-19T05:46:28;47720.91;;;-141.97;64.33
7018;BME280;3549;42.162;24.726;2023-05-19T05:48:53;47793.94;;;-141.97;63.45
7018;BME280;3549;42.162;24.726;2023-05-19T05:51:22;47749.72;;;-141.97;62.58
7018;BME280;3549;42.162;24.726;2023-05-19T05:53:53;47761.25;;;-141.97;63.62
7018;BME280;3549;42.162;24.726;2023-05-19T05:56:19;47768.94;;;-141.97;63.63
7018;BME280;3549;42.162;24.726;2023-05-19T05:58:45;47765.09;;;-141.97;62.98
7018;BME280;3549;42.162;24.726;2023-05-19T06:01:11;47807.41;;;-141.97;63.18
7018;BME280;3549;42.162;24.726;2023-05-19T06:03:41;47768.94;;;-141.97;62.80
7018;BME280;3549;42.162;24.726;2023-05-19T06:06:09;47757.41;;;-141.97;62.76
7018;BME280;3549;42.162;24.726;2023-05-19T06:08:35;47788.19;;;-141.97;62.85
7018;BME280;3549;42.162;24.726;2023-05-19T06:11:01;47818.94;;;-141.97;62.47
7018;BME280;3549;42.162;24.726;2023-05-19T06:13:36;47751.66;;;-141.97;62.46
7018;BME280;3549;42.162;24.726;2023-05-19T06:16:02;47751.66;;;-141.97;61.30
7018;BME280;3549;42.162;24.726;2023-05-19T06:18:28;47728.59;;;-141.97;61.90
7018;BME280;3549;42.162;24.726;2023-05-19T06:20:54;47761.25;;;-141.97;61.48
7018;BME280;3549;42.162;24.726;2023-05-19T06:23:19;47717.06;;;-141.97;62.12
7018;BME280;3549;42.162;24.726;2023-05-19T06:25:45;47826.63;;;-141.97;61.58
7018;BME280;3549;42.162;24.726;2023-05-19T06:28:10;47811.25;;;-141.97;61.36
7018;BME280;3549;42.162;24.726;2023-05-19T06:30:36;47782.41;;;-141.97;62.35
7018;BME280;3549;42.162;24.726;2023-05-19T06:33:02;47757.41;;;-141.97;63.44
7018;BME280;3549;42.162;24.726;2023-05-19T06:35:29;47765.09;;;-141.97;62.90
7018;BME280;3549;42.162;24.726;2023-05-19T06:37:54;47795.88;;;-141.97;62.26
7018;BME280;3549;42.162;24.726;2023-05-19T06:40:23;47780.47;;;-141.97;61.80
7018;BME280;3549;42.162;24.726;2023-05-19T06:42:49;47891.97;;;-141.97;61.31
7018;BME280;3549;42.162;24.726;2023-05-19T06:45:14;47759.34;;;-141.97;60.59
7018;BME280;3549;42.162;24.726;2023-05-19T06:47:40;47742.03;;;-141.97;60.38
7018;BME280;3549;42.162;24.726;2023-05-19T06:50:08;47768.94;;;-141.97;60.93
7018;BME280;3549;42.162;24.726;2023-05-19T06:52:34;47941.94;;;-141.97;60.60
7018;BME280;3549;42.162;24.726;2023-05-19T06:54:59;47932.34;;;-141.97;59.59
7018;BME280;3549;42.162;24.726;2023-05-19T06:57:25;47792.03;;;-141.97;60.60
7018;BME280;3549;42.162;24.726;2023-05-19T06:59:50;47895.81;;;-141.97;60.38
7018;BME280;3549;42.162;24.726;2023-05-19T07:02:16;47745.88;;;-141.97;60.76
7018;BME280;3549;42.162;24.726;2023-05-19T07:04:41;47757.41;;;-141.97;61.12
7018;BME280;3549;42.162;24.726;2023-05-19T07:07:07;47763.19;;;-141.97;60.72
7018;BME280;3549;42.162;24.726;2023-05-19T07:09:33;47755.50;;;-141.97;60.29
7018;BME280;3549;42.162;24.726;2023-05-19T07:11:59;47895.81;;;-141.97;58.78
7018;BME280;3549;42.162;24.726;2023-05-19T07:14:25;47630.56;;;-141.97;58.19
7018;BME280;3549;42.162;24.726;2023-05-19T07:16:50;47713.22;;;-141.97;58.44
7018;BME280;3549;42.162;24.726;2023-05-19T07:19:16;47753.56;;;-141.97;58.59
7018;BME280;3549;42.162;24.726;2023-05-19T07:21:44;47757.41;;;-141.97;57.58
7018;BME280;3549;42.162;24.726;2023-05-19T07:24:09;47742.03;;;-141.97;58.48
7018;BME280;3549;42.162;24.726;2023-05-19T07:26:35;47703.59;;;-141.97;57.31
7018;BME280;3549;42.162;24.726;2023-05-19T07:29:00;47734.34;;;-141.97;56.48
7018;BME280;3549;42.162;24.726;2023-05-19T07:31:26;47797.78;;;-141.97;56.55
7018;BME280;3549;42.162;24.726;2023-05-19T07:33:51;47765.09;;;-141.97;56.34
7018;BME280;3549;42.162;24.726;2023-05-19T07:36:16;47661.31;;;-141.97;55.90
7018;BME280;3549;42.162;24.726;2023-05-19T07:38:42;47647.84;;;-141.97;56.19
7018;BME280;3549;42.162;24.726;2023-05-19T07:41:08;47882.38;;;-141.97;56.24
7018;BME280;3549;42.162;24.726;2023-05-19T07:43:33;47682.47;;;-141.97;56.03
7018;BME280;3549;42.162;24.726;2023-05-19T07:45:58;47722.81;;;-141.97;56.25
7018;BME280;3549;42.162;24.726;2023-05-19T07:48:24;47619.03;;;-141.97;54.77
7018;BME280;3549;42.162;24.726;2023-05-19T07:50:51;47738.19;;;-141.97;54.19
7018;BME280;3549;42.162;24.726;2023-05-19T07:53:17;47590.19;;;-141.97;54.05
7018;BME280;3549;42.162;24.726;2023-05-19T07:55:42;47657.47;;;-141.97;54.92
7018;BME280;3549;42.162;24.726;2023-05-19T07:58:08;47857.38;;;-141.97;55.24
7018;BME280;3549;42.162;24.726;2023-05-19T08:00:33;47870.81;;;-141.97;55.82
7018;BME280;3549;42.162;24.726;2023-05-19T08:02:59;47640.16;;;-141.97;54.08
7018;BME280;3549;42.162;24.726;2023-05-19T08:05:25;47730.50;;;-141.97;54.60
7018;BME280;3549;42.162;24.726;2023-05-19T08:07:51;47611.34;;;-141.97;53.73
7018;BME280;3549;42.162;24.726;2023-05-19T08:10:16;47688.22;;;-141.97;54.07
7018;BME280;3549;42.162;24.726;2023-05-19T08:12:42;47715.13;;;-141.97;52.58
7018;BME280;3549;42.162;24.726;2023-05-19T08:15:08;47736.28;;;-141.97;53.65
7018;BME280;3549;42.162;24.726;2023-05-19T08:17:36;47745.88;;;-141.97;52.43
7018;BME280;3549;42.162;24.726;2023-05-19T08:20:01;47851.59;;;-141.97;53.27
7018;BME280;3549;42.162;24.726;2023-05-19T08:22:29;47915.03;;;-141.97;54.08
7018;BME280;3549;42.162;24.726;2023-05-19T08:24:54;47730.50;;;-141.97;53.06
7018;BME280;3549;42.162;24.726;2023-05-19T08:27:19;47738.19;;;-141.97;51.94
7018;BME280;3549;42.162;24.726;2023-05-19T08:29:45;47699.75;;;-141.97;52.36
7018;BME280;3549;42.162;24.726;2023-05-19T08:32:10;47718.97;;;-141.97;51.39
7018;BME280;3549;42.162;24.726;2023-05-19T08:34:35;47732.44;;;-141.97;49.98
7018;BME280;3549;42.162;24.726;2023-05-19T08:37:01;47595.97;;;-141.97;50.93
7018;BME280;3549;42.162;24.726;2023-05-19T08:39:27;47707.44;;;-141.97;50.17
7018;BME280;3549;42.162;24.726;2023-05-19T08:41:53;47665.16;;;-141.97;50.41
7018;BME280;3549;42.162;24.726;2023-05-19T08:44:18;47688.22;;;-141.97;50.38
7018;BME280;3549;42.162;24.726;2023-05-19T08:46:46;47613.25;;;-141.97;49.54
7018;BME280;3549;42.162;24.726;2023-05-19T08:49:12;47765.09;;;-141.97;48.92
7018;BME280;3549;42.162;24.726;2023-05-19T08:57:27;47615.19;;;-141.97;48.44
7018;BME280;3549;42.162;24.726;2023-05-19T08:59:53;47644.00;;;-141.97;48.53
7018;BME280;3549;42.162;24.726;2023-05-19T09:02:21;47707.44;;;-141.97;47.81
7018;BME280;3549;42.162;24.726;2023-05-19T09:04:47;47690.16;;;-141.97;47.46
7018;BME280;3549;42.162;24.726;2023-05-19T09:07:15;47661.31;;;-141.97;47.46
7018;BME280;3549;42.162;24.726;2023-05-19T09:09:43;47707.44;;;-141.97;45.65
7018;BME280;3549;42.162;24.726;2023-05-19T09:12:09;47657.47;;;-141.97;44.80
7018;BME280;3549;42.162;24.726;2023-05-19T09:14:36;47657.47;;;-141.97;44.77
7018;BME280;3549;42.162;24.726;2023-05-19T09:17:02;47657.47;;;-141.97;45.08
7018;BME280;3549;42.162;24.726;2023-05-19T09:19:27;47607.50;;;-141.97;44.40
7018;BME280;3549;42.162;24.726;2023-05-19T09:22:00;47711.28;;;-141.97;43.92
7018;BME280;3549;42.162;24.726;2023-05-19T09:24:27;47672.84;;;-141.97;43.52
7018;BME280;3549;42.162;24.726;2023-05-19T09:26:54;47649.78;;;-141.97;42.89
7018;BME280;3549;42.162;24.726;2023-05-19T09:29:21;47622.88;;;-141.97;42.66
7018;BME280;3549;42.162;24.726;2023-05-19T09:31:50;47626.72;;;-141.97;43.79
7018;BME280;3549;42.162;24.726;2023-05-19T09:34:16;47653.63;;;-141.97;44.13
7018;BME280;3549;42.162;24.726;2023-05-19T09:36:42;47667.06;;;-141.97;44.06
7018;BME280;3549;42.162;24.726;2023-05-19T09:39:14;47834.31;;;-141.97;44.19
7018;BME280;3549;42.162;24.726;2023-05-19T09:41:41;47626.72;;;-141.97;43.06
7018;BME280;3549;42.162;24.726;2023-05-19T09:44:11;47834.31;;;-141.97;42.51
7018;BME280;3549;42.162;24.726;2023-05-19T09:46:36;47724.75;;;-141.97;42.14
7018;BME280;3549;42.162;24.726;2023-05-19T09:49:08;47599.81;;;-141.97;40.77
7018;BME280;3549;42.162;24.726;2023-05-19T09:51:35;47826.63;;;-141.97;41.37
7018;BME280;3549;42.162;24.726;2023-05-19T09:54:02;47626.72;;;-141.97;42.29
7018;BME280;3549;42.162;24.726;2023-05-19T09:56:33;47780.47;;;-141.97;42.57
7018;BME280;3549;42.162;24.726;2023-05-19T09:58:59;47678.63;;;-141.97;43.26
7018;BME280;3549;42.162;24.726;2023-05-19T10:01:25;47642.09;;;-141.97;43.65
7018;BME280;3549;42.162;24.726;2023-05-19T10:03:51;47653.63;;;-141.97;43.47
7018;BME280;3549;42.162;24.726;2023-05-19T10:06:17;47601.72;;;-141.97;43.43
7018;BME280;3549;42.162;24.726;2023-05-19T10:08:45;47661.31;;;-141.97;43.03
7018;BME280;3549;42.162;24.726;2023-05-19T10:11:12;47855.44;;;-141.97;43.00
7018;BME280;3549;42.162;24.726;2023-05-19T10:13:39;47688.22;;;-141.97;42.90
7018;BME280;3549;42.162;24.726;2023-05-19T10:16:05;47599.81;;;-141.97;43.37
7018;BME280;3549;42.162;24.726;2023-05-19T10:18:32;47672.84;;;-141.97;44.36
7018;BME280;3549;42.162;24.726;2023-05-19T10:20:57;47840.06;;;-141.97;44.77
7018;BME280;3549;42.162;24.726;2023-05-19T10:23:25;47670.91;;;-141.97;44.77
7018;BME280;3549;42.162;24.726;2023-05-19T10:25:54;47609.41;;;-141.97;43.64
7018;BME280;3549;42.162;24.726;2023-05-19T10:28:21;47880.44;;;-141.97;43.35
7018;BME280;3549;42.162;24.726;2023-05-19T10:30:52;47657.47;;;-141.97;42.92
7018;BME280;3549;42.162;24.726;2023-05-19T10:33:19;47665.16;;;-141.97;42.00
7018;BME280;3549;42.162;24.726;2023-05-19T10:35:58;47630.56;;;-141.97;41.03
7018;BME280;3549;42.162;24.726;2023-05-19T10:38:41;47534.44;;;-141.97;40.60
7018;BME280;3549;42.162;24.726;2023-05-19T10:41:18;47619.03;;;-141.97;40.72
7018;BME280;3549;42.162;24.726;2023-05-19T10:44:27;47603.66;;;-141.97;40.17
7018;BME280;3549;42.162;24.726;2023-05-19T10:46:54;47626.72;;;-141.97;39.38
7018;BME280;3549;42.162;24.726;2023-05-19T10:49:20;47609.41;;;-141.97;39.97
7018;BME280;3549;42.162;24.726;2023-05-19T10:51:50;47847.75;;;-141.97;40.01
7018;BME280;3549;42.162;24.726;2023-05-19T10:54:16;47546.00;;;-141.97;40.26
7018;BME280;3549;42.162;24.726;2023-05-19T10:56:43;47563.28;;;-141.97;41.05
7018;BME280;3549;42.162;24.726;2023-05-19T10:59:31;47634.41;;;-141.97;41.79
7018;BME280;3549;42.162;24.726;2023-05-19T11:02:02;47490.25;;;-141.97;44.19
7018;BME280;3549;42.162;24.726;2023-05-19T11:04:47;47599.81;;;-141.97;46.96
7018;BME280;3549;42.162;24.726;2023-05-19T11:07:18;47684.38;;;-141.97;48.47
7018;BME280;3549;42.162;24.726;2023-05-19T11:09:51;47622.88;;;-141.97;45.67
7018;BME280;3549;42.162;24.726;2023-05-19T11:12:21;47667.06;;;-141.97;44.02
7018;BME280;3549;42.162;24.726;2023-05-19T11:14:47;47617.09;;;-141.97;46.01
7018;BME280;3549;42.162;24.726;2023-05-19T11:17:17;47669.00;;;-141.97;44.69
7018;BME280;3549;42.162;24.726;2023-05-19T11:19:56;47574.81;;;-141.97;44.77
7018;BME280;3549;42.162;24.726;2023-05-19T11:22:27;47546.00;;;-141.97;41.41
7018;BME280;3549;42.162;24.726;2023-05-19T11:24:56;47499.84;;;-141.97;40.12
7018;BME280;3549;42.162;24.726;2023-05-19T11:29:52;47601.72;;;-141.97;39.57
7018;BME280;3549;42.162;24.726;2023-05-19T11:32:22;47592.13;;;-141.97;39.59
7018;BME280;3549;42.162;24.726;2023-05-19T11:34:49;47849.69;;;-141.97;41.14
7018;BME280;3549;42.162;24.726;2023-05-19T11:37:15;47649.78;;;-141.97;42.33
7018;BME280;3549;42.162;24.726;2023-05-19T11:39:41;47496.00;;;-141.97;43.12
7018;BME280;3549;42.162;24.726;2023-05-19T11:42:08;47678.63;;;-141.97;42.88
7018;BME280;3549;42.162;24.726;2023-05-19T11:44:34;47576.75;;;-141.97;43.47
7018;BME280;3549;42.162;24.726;2023-05-19T11:47:00;47599.81;;;-141.97;43.20
7018;BME280;3549;42.162;24.726;2023-05-19T11:49:29;47661.31;;;-141.97;43.40
7018;BME280;3549;42.162;24.726;2023-05-19T11:51:55;47634.41;;;-141.97;41.65
7018;BME280;3549;42.162;24.726;2023-05-19T11:54:28;47638.25;;;-141.97;39.25
7018;BME280;3549;42.162;24.726;2023-05-19T11:56:55;47503.69;;;-141.97;37.57
7018;BME280;3549;42.162;24.726;2023-05-19T11:59:29;47699.75;;;-141.97;35.40
7018;BME280;3549;42.162;24.726;2023-05-19T12:01:55;47459.50;;;-141.97;34.19
7018;BME280;3549;42.162;24.726;2023-05-19T12:04:20;47559.44;;;-141.97;33.95
7018;BME280;3549;42.162;24.726;2023-05-19T12:06:47;47546.00;;;-141.97;34.00
7018;BME280;3549;42.162;24.726;2023-05-19T12:09:13;47628.63;;;-141.97;32.49
7018;BME280;3549;42.162;24.726;2023-05-19T12:11:39;47496.00;;;-141.97;33.62
7018;BME280;3549;42.162;24.726;2023-05-19T12:14:05;47549.84;;;-141.97;33.72
7018;BME280;3549;42.162;24.726;2023-05-19T12:16:32;47515.22;;;-141.97;34.13
7018;BME280;3549;42.162;24.726;2023-05-19T12:18:58;47438.34;;;-141.97;36.04
7018;BME280;3549;42.162;24.726;2023-05-19T12:21:24;47413.38;;;-141.97;35.04
7018;BME280;3549;42.162;24.726;2023-05-19T12:23:49;47570.97;;;-141.97;34.11
7018;BME280;3549;42.162;24.726;2023-05-19T12:26:15;47384.53;;;-141.97;33.50
7018;BME280;3549;42.162;24.726;2023-05-19T12:28:44;47440.28;;;-141.97;34.48
7018;BME280;3549;42.162;24.726;2023-05-19T12:31:09;47503.69;;;-141.97;33.68
7018;BME280;3549;42.162;24.726;2023-05-19T12:33:35;47511.38;;;-141.97;34.02
7018;BME280;3549;42.162;24.726;2023-05-19T12:36:01;47692.06;;;-141.97;34.83
7018;BME280;3549;42.162;24.726;2023-05-19T12:38:26;47392.22;;;-141.97;35.15
7018;BME280;3549;42.162;24.726;2023-05-19T12:40:51;47751.66;;;-141.97;35.32
7018;BME280;3549;42.162;24.726;2023-05-19T12:43:21;47576.75;;;-141.97;34.16
7018;BME280;3549;42.162;24.726;2023-05-19T12:45:47;47557.53;;;-141.97;34.67
7018;BME280;3549;42.162;24.726;2023-05-19T12:48:13;47455.66;;;-141.97;34.12
7018;BME280;3549;42.162;24.726;2023-05-19T12:50:40;47503.69;;;-141.97;34.01
7018;BME280;3549;42.162;24.726;2023-05-19T12:53:12;47492.16;;;-141.97;32.50
7018;BME280;3549;42.162;24.726;2023-05-19T12:55:39;47476.78;;;-141.97;30.57
7018;BME280;3549;42.162;24.726;2023-05-19T12:58:08;47453.72;;;-141.97;30.25
7018;BME280;3549;42.162;24.726;2023-05-19T13:00:39;47405.69;;;-141.97;31.11
7018;BME280;3549;42.162;24.726;2023-05-19T13:03:06;47496.00;;;-141.97;30.16
7018;BME280;3549;42.162;24.726;2023-05-19T13:05:42;47517.16;;;-141.97;30.98
7018;BME280;3549;42.162;24.726;2023-05-19T13:08:10;47453.72;;;-141.97;32.43
7018;BME280;3549;42.162;24.726;2023-05-19T13:10:38;47474.88;;;-141.97;33.21
7018;BME280;3549;42.162;24.726;2023-05-19T13:13:04;47434.50;;;-141.97;31.84
7018;BME280;3549;42.162;24.726;2023-05-19T13:15:32;47476.78;;;-141.97;32.17
7018;BME280;3549;42.162;24.726;2023-05-19T13:18:01;47472.94;;;-141.97;31.98